sensor_id;sensor_type;location;lat;lon;timestamp;P1;durP1;ratioP1;P2;durP2;ratioP2
3149;SDS011;32503;47.748;8.960;2024-03-07T00:00:57;9.57;;;6.63;;
3149;SDS011;32503;47.748;8.960;2024-03-07T00:03:25;11.53;;;7.20;;
3149;SDS011;32503;47.748;8.960;2024-03-07T00:05:52;13.50;;;8.13;;
3149;SDS011;32503;47.748;8.960;2024-03-07T00:08:19;7.60;;;6.80;;
3149;SDS011;32503;47.748;8.960;2024-03-07T00:10:46;12.93;;;8.20;;
3149;SDS011;32503;47.748;8.960;2024-03-07T00:13:15;8.43;;;6.37;;
3149;SDS011;32503;47.748;8.960;2024-03-07T00:15:42;13.90;;;8.40;;
3149;SDS011;32503;47.748;8.960;2024-03-07T00:18:09;10.50;;;7.53;;
3149;SDS011;32503;47.748;8.960;2024-03-07T00:20:36;12.57;;;8.20;;
3149;SDS011;32503;47.748;8.960;2024-03-07T00:23:03;9.03;;;6.50;;
3149;SDS011;32503;47.748;8.960;2024-03-07T00:25:31;12.20;;;8.93;;
3149;SDS011;32503;47.748;8.960;2024-03-07T00:27:58;13.93;;;8.40;;
3149;SDS011;32503;47.748;8.960;2024-03-07T00:30:29;11.33;;;7.80;;
3149;SDS011;32503;47.748;8.960;2024-03-07T00:32:56;10.43;;;7.40;;
3149;SDS011;32503;47.748;8.960;2024-03-07T00:35:24;18.00;;;9.27;;
3149;SDS011;32503;47.748;8.960;2024-03-07T00:37:51;14.13;;;8.83;;
3149;SDS011;32503;47.748;8.960;2024-03-07T00:40:18;12.10;;;7.90;;
3149;SDS011;32503;47.748;8.960;2024-03-07T00:42:45;11.40;;;8.50;;
3149;SDS011;32503;47.748;8.960;2024-03-07T00:45:12;12.73;;;7.70;;
3149;SDS011;32503;47.748;8.960;2024-03-07T00:47:41;11.57;;;7.80;;
3149;SDS011;32503;47.748;8.960;2024-03-07T00:50:08;14.43;;;8.57;;
3149;SDS011;32503;47.748;8.960;2024-03-07T00:52:36;11.33;;;8.67;;
3149;SDS011;32503;47.748;8.960;2024-03-07T00:55:05;11.60;;;7.37;;
3149;SDS011;32503;47.748;8.960;2024-03-07T00:57:34;13.23;;;8.87;;
3149;SDS011;32503;47.748;8.960;2024-03-07T01:00:01;13.90;;;8.40;;
3149;SDS011;32503;47.748;8.960;2024-03-07T01:02:29;16.03;;;9.00;;
3149;SDS011;32503;47.748;8.960;2024-03-07T01:04:58;13.20;;;9.07;;
3149;SDS011;32503;47.748;8.960;2024-03-07T01:07:25;10.27;;;7.60;;
3149;SDS011;32503;47.748;8.960;2024-03-07T01:09:53;9.70;;;7.50;;
3149;SDS011;32503;47.748;8.960;2024-03-07T01:12:20;13.30;;;8.93;;
3149;SDS011;32503;47.748;8.960;2024-03-07T01:14:49;13.97;;;8.90;;
3149;SDS011;32503;47.748;8.960;2024-03-07T01:17:16;12.57;;;7.53;;
3149;SDS011;32503;47.748;8.960;2024-03-07T01:19:43;14.03;;;8.80;;
3149;SDS011;32503;47.748;8.960;2024-03-07T01:22:11;12.80;;;8.00;;
3149;SDS011;32503;47.748;8.960;2024-03-07T01:24:38;10.43;;;8.07;;
3149;SDS011;32503;47.748;8.960;2024-03-07T01:27:05;14.57;;;8.70;;
3149;SDS011;32503;47.748;8.960;2024-03-07T01:29:33;12.40;;;7.90;;
3149;SDS011;32503;47.748;8.960;2024-03-07T01:32:00;15.73;;;8.60;;
3149;SDS011;32503;47.748;8.960;2024-03-07T01:34:28;13.00;;;8.10;;
3149;SDS011;32503;47.748;8.960;2024-03-07T01:36:55;12.10;;;8.30;;
3149;SDS011;32503;47.748;8.960;2024-03-07T01:39:23;13.33;;;8.00;;
3149;SDS011;32503;47.748;8.960;2024-03-07T01:41:51;12.50;;;8.20;;
3149;SDS011;32503;47.748;8.960;2024-03-07T01:44:18;15.90;;;9.60;;
3149;SDS011;32503;47.748;8.960;2024-03-07T01:46:45;13.93;;;9.00;;
3149;SDS011;32503;47.748;8.960;2024-03-07T01:49:15;15.60;;;9.03;;
3149;SDS011;32503;47.748;8.960;2024-03-07T01:51:42;15.50;;;8.50;;
3149;SDS011;32503;47.748;8.960;2024-03-07T01:54:10;14.20;;;8.20;;
3149;SDS011;32503;47.748;8.960;2024-03-07T01:56:39;15.10;;;8.13;;
3149;SDS011;32503;47.748;8.960;2024-03-07T01:59:06;16.37;;;9.57;;
3149;SDS011;32503;47.748;8.960;2024-03-07T02:01:34;15.30;;;8.77;;
3149;SDS011;32503;47.748;8.960;2024-03-07T02:04:02;12.07;;;8.43;;
3149;SDS011;32503;47.748;8.960;2024-03-07T02:06:29;14.23;;;8.77;;
3149;SDS011;32503;47.748;8.960;2024-03-07T02:08:56;13.40;;;8.43;;
3149;SDS011;32503;47.748;8.960;2024-03-07T02:11:23;13.40;;;8.03;;
3149;SDS011;32503;47.748;8.960;2024-03-07T02:13:52;14.07;;;8.67;;
3149;SDS011;32503;47.748;8.960;2024-03-07T02:16:19;17.30;;;8.90;;
3149;SDS011;32503;47.748;8.960;2024-03-07T02:18:46;17.03;;;10.07;;
3149;SDS011;32503;47.748;8.960;2024-03-07T02:21:15;18.30;;;9.87;;
3149;SDS011;32503;47.748;8.960;2024-03-07T02:23:42;14.60;;;8.87;;
3149;SDS011;32503;47.748;8.960;2024-03-07T02:26:09;21.07;;;10.23;;
3149;SDS011;32503;47.748;8.960;2024-03-07T02:28:36;14.93;;;9.23;;
3149;SDS011;32503;47.748;8.960;2024-03-07T02:31:04;20.43;;;10.20;;
3149;SDS011;32503;47.748;8.960;2024-03-07T02:33:31;16.50;;;9.60;;
3149;SDS011;32503;47.748;8.960;2024-03-07T02:35:58;15.43;;;8.97;;
3149;SDS011;32503;47.748;8.960;2024-03-07T02:38:26;17.23;;;9.90;;
3149;SDS011;32503;47.748;8.960;2024-03-07T02:40:53;13.47;;;9.37;;
3149;SDS011;32503;47.748;8.960;2024-03-07T02:43:21;15.70;;;9.70;;
3149;SDS011;32503;47.748;8.960;2024-03-07T02:45:48;17.90;;;10.03;;
3149;SDS011;32503;47.748;8.960;2024-03-07T02:48:15;17.80;;;9.97;;
3149;SDS011;32503;47.748;8.960;2024-03-07T02:50:43;19.97;;;9.67;;
3149;SDS011;32503;47.748;8.960;2024-03-07T02:53:10;18.73;;;10.03;;
3149;SDS011;32503;47.748;8.960;2024-03-07T02:55:39;18.40;;;10.50;;
3149;SDS011;32503;47.748;8.960;2024-03-07T02:58:06;20.87;;;11.13;;
3149;SDS011;32503;47.748;8.960;2024-03-07T03:00:33;14.23;;;10.20;;
3149;SDS011;32503;47.748;8.960;2024-03-07T03:03:01;16.80;;;9.40;;
3149;SDS011;32503;47.748;8.960;2024-03-07T03:05:28;18.00;;;9.93;;
3149;SDS011;32503;47.748;8.960;2024-03-07T03:07:55;16.37;;;10.70;;
3149;SDS011;32503;47.748;8.960;2024-03-07T03:10:22;19.43;;;10.47;;
3149;SDS011;32503;47.748;8.960;2024-03-07T03:12:52;17.10;;;10.40;;
3149;SDS011;32503;47.748;8.960;2024-03-07T03:15:20;20.63;;;10.53;;
3149;SDS011;32503;47.748;8.960;2024-03-07T03:17:47;17.80;;;10.13;;
3149;SDS011;32503;47.748;8.960;2024-03-07T03:20:14;14.83;;;10.10;;
3149;SDS011;32503;47.748;8.960;2024-03-07T03:22:49;14.27;;;8.80;;
3149;SDS011;32503;47.748;8.960;2024-03-07T03:25:18;15.83;;;8.30;;
3149;SDS011;32503;47.748;8.960;2024-03-07T03:27:45;15.10;;;8.83;;
3149;SDS011;32503;47.748;8.960;2024-03-07T03:30:15;13.53;;;7.90;;
3149;SDS011;32503;47.748;8.960;2024-03-07T03:32:43;15.67;;;8.97;;
3149;SDS011;32503;47.748;8.960;2024-03-07T03:35:12;16.63;;;9.43;;
3149;SDS011;32503;47.748;8.960;2024-03-07T03:37:40;20.73;;;9.73;;
3149;SDS011;32503;47.748;8.960;2024-03-07T03:40:08;18.23;;;9.00;;
3149;SDS011;32503;47.748;8.960;2024-03-07T03:42:37;13.20;;;8.97;;
3149;SDS011;32503;47.748;8.960;2024-03-07T03:45:05;20.37;;;10.07;;
3149;SDS011;32503;47.748;8.960;2024-03-07T03:47:41;14.30;;;8.63;;
3149;SDS011;32503;47.748;8.960;2024-03-07T03:50:09;16.60;;;8.87;;
3149;SDS011;32503;47.748;8.960;2024-03-07T03:52:38;15.07;;;8.23;;
3149;SDS011;32503;47.748;8.960;2024-03-07T03:55:06;17.63;;;9.67;;
3149;SDS011;32503;47.748;8.960;2024-03-07T03:57:35;17.50;;;9.40;;
3149;SDS011;32503;47.748;8.960;2024-03-07T04:00:04;19.27;;;9.70;;
3149;SDS011;32503;47.748;8.960;2024-03-07T04:02:37;13.13;;;9.13;;
3149;SDS011;32503;47.748;8.960;2024-03-07T04:05:07;16.80;;;8.50;;
3149;SDS011;32503;47.748;8.960;2024-03-07T04:07:35;16.07;;;9.40;;
3149;SDS011;32503;47.748;8.960;2024-03-07T04:10:03;13.17;;;8.17;;
3149;SDS011;32503;47.748;8.960;2024-03-07T04:12:32;13.30;;;8.60;;
3149;SDS011;32503;47.748;8.960;2024-03-07T04:15:00;13.67;;;8.00;;
3149;SDS011;32503;47.748;8.960;2024-03-07T04:17:29;12.00;;;7.10;;
3149;SDS011;32503;47.748;8.960;2024-03-07T04:19:58;15.10;;;7.83;;
3149;SDS011;32503;47.748;8.960;2024-03-07T04:22:25;13.10;;;8.40;;
3149;SDS011;32503;47.748;8.960;2024-03-07T04:24:52;16.47;;;9.37;;
3149;SDS011;32503;47.748;8.960;2024-03-07T04:27:20;12.10;;;7.57;;
3149;SDS011;32503;47.748;8.960;2024-03-07T04:29:47;13.47;;;7.90;;
3149;SDS011;32503;47.748;8.960;2024-03-07T04:32:14;12.60;;;8.13;;
3149;SDS011;32503;47.748;8.960;2024-03-07T04:34:42;13.00;;;7.90;;
3149;SDS011;32503;47.748;8.960;2024-03-07T04:37:11;13.97;;;8.30;;
3149;SDS011;32503;47.748;8.960;2024-03-07T04:39:38;12.70;;;8.67;;
3149;SDS011;32503;47.748;8.960;2024-03-07T04:42:06;12.47;;;7.57;;
3149;SDS011;32503;47.748;8.960;2024-03-07T04:44:34;13.50;;;8.23;;
3149;SDS011;32503;47.748;8.960;2024-03-07T04:47:04;16.00;;;8.47;;
3149;SDS011;32503;47.748;8.960;2024-03-07T04:49:32;12.60;;;8.43;;
3149;SDS011;32503;47.748;8.960;2024-03-07T04:52:01;14.43;;;9.23;;
3149;SDS011;32503;47.748;8.960;2024-03-07T04:54:32;12.37;;;7.80;;
3149;SDS011;32503;47.748;8.960;2024-03-07T04:57:00;13.23;;;8.73;;
3149;SDS011;32503;47.748;8.960;2024-03-07T04:59:27;14.30;;;8.67;;
3149;SDS011;32503;47.748;8.960;2024-03-07T05:01:54;12.87;;;8.67;;
3149;SDS011;32503;47.748;8.960;2024-03-07T05:04:21;15.83;;;7.80;;
3149;SDS011;32503;47.748;8.960;2024-03-07T05:06:54;15.37;;;8.73;;
3149;SDS011;32503;47.748;8.960;2024-03-07T05:09:22;10.70;;;7.87;;
3149;SDS011;32503;47.748;8.960;2024-03-07T05:11:52;13.80;;;8.60;;
3149;SDS011;32503;47.748;8.960;2024-03-07T05:14:20;16.63;;;10.23;;
3149;SDS011;32503;47.748;8.960;2024-03-07T05:16:47;13.13;;;7.93;;
3149;SDS011;32503;47.748;8.960;2024-03-07T05:19:29;12.90;;;8.67;;
3149;SDS011;32503;47.748;8.960;2024-03-07T05:21:57;15.60;;;8.50;;
3149;SDS011;32503;47.748;8.960;2024-03-07T05:24:24;13.73;;;7.90;;
3149;SDS011;32503;47.748;8.960;2024-03-07T05:26:53;20.83;;;10.20;;
3149;SDS011;32503;47.748;8.960;2024-03-07T05:29:20;14.40;;;9.13;;
3149;SDS011;32503;47.748;8.960;2024-03-07T05:31:47;17.83;;;9.20;;
3149;SDS011;32503;47.748;8.960;2024-03-07T05:34:15;15.83;;;8.97;;
3149;SDS011;32503;47.748;8.960;2024-03-07T05:36:44;18.77;;;9.10;;
3149;SDS011;32503;47.748;8.960;2024-03-07T05:39:12;15.53;;;9.30;;
3149;SDS011;32503;47.748;8.960;2024-03-07T05:41:40;16.90;;;8.80;;
3149;SDS011;32503;47.748;8.960;2024-03-07T05:44:11;16.40;;;10.13;;
3149;SDS011;32503;47.748;8.960;2024-03-07T05:46:38;14.43;;;8.13;;
3149;SDS011;32503;47.748;8.960;2024-03-07T05:49:11;19.40;;;9.50;;
3149;SDS011;32503;47.748;8.960;2024-03-07T05:51:38;19.97;;;10.10;;
3149;SDS011;32503;47.748;8.960;2024-03-07T05:54:07;14.53;;;8.93;;
3149;SDS011;32503;47.748;8.960;2024-03-07T05:56:34;15.30;;;9.10;;
3149;SDS011;32503;47.748;8.960;2024-03-07T05:59:01;14.40;;;8.80;;
3149;SDS011;32503;47.748;8.960;2024-03-07T06:01:31;20.37;;;9.27;;
3149;SDS011;32503;47.748;8.960;2024-03-07T06:03:59;16.90;;;10.00;;
3149;SDS011;32503;47.748;8.960;2024-03-07T06:06:27;20.40;;;10.53;;
3149;SDS011;32503;47.748;8.960;2024-03-07T06:08:57;15.27;;;9.10;;
3149;SDS011;32503;47.748;8.960;2024-03-07T06:11:24;17.47;;;10.10;;
3149;SDS011;32503;47.748;8.960;2024-03-07T06:13:51;22.93;;;10.33;;
3149;SDS011;32503;47.748;8.960;2024-03-07T06:16:18;16.10;;;8.87;;
3149;SDS011;32503;47.748;8.960;2024-03-07T06:18:46;22.73;;;10.10;;
3149;SDS011;32503;47.748;8.960;2024-03-07T06:21:13;20.33;;;10.63;;
3149;SDS011;32503;47.748;8.960;2024-03-07T06:23:41;19.63;;;10.37;;
3149;SDS011;32503;47.748;8.960;2024-03-07T06:26:12;24.57;;;11.20;;
3149;SDS011;32503;47.748;8.960;2024-03-07T06:28:42;23.30;;;10.90;;
3149;SDS011;32503;47.748;8.960;2024-03-07T06:31:10;19.33;;;10.77;;
3149;SDS011;32503;47.748;8.960;2024-03-07T06:33:37;22.73;;;11.57;;
3149;SDS011;32503;47.748;8.960;2024-03-07T06:36:06;22.67;;;11.20;;
3149;SDS011;32503;47.748;8.960;2024-03-07T06:38:34;19.80;;;10.80;;
3149;SDS011;32503;47.748;8.960;2024-03-07T06:41:01;19.03;;;11.20;;
3149;SDS011;32503;47.748;8.960;2024-03-07T06:43:28;19.03;;;11.10;;
3149;SDS011;32503;47.748;8.960;2024-03-07T06:45:55;16.33;;;10.57;;
3149;SDS011;32503;47.748;8.960;2024-03-07T06:48:22;23.27;;;10.73;;
3149;SDS011;32503;47.748;8.960;2024-03-07T06:50:49;19.87;;;10.10;;
3149;SDS011;32503;47.748;8.960;2024-03-07T06:53:19;15.97;;;9.70;;
3149;SDS011;32503;47.748;8.960;2024-03-07T06:55:51;20.87;;;10.97;;
3149;SDS011;32503;47.748;8.960;2024-03-07T06:58:18;18.83;;;10.83;;
3149;SDS011;32503;47.748;8.960;2024-03-07T07:00:46;24.17;;;12.07;;
3149;SDS011;32503;47.748;8.960;2024-03-07T07:03:13;20.63;;;11.87;;
3149;SDS011;32503;47.748;8.960;2024-03-07T07:05:40;23.87;;;11.53;;
3149;SDS011;32503;47.748;8.960;2024-03-07T07:08:07;29.97;;;13.73;;
3149;SDS011;32503;47.748;8.960;2024-03-07T07:10:35;23.07;;;12.53;;
3149;SDS011;32503;47.748;8.960;2024-03-07T07:13:05;26.17;;;14.20;;
3149;SDS011;32503;47.748;8.960;2024-03-07T07:15:32;25.17;;;12.43;;
3149;SDS011;32503;47.748;8.960;2024-03-07T07:18:02;24.53;;;12.50;;
3149;SDS011;32503;47.748;8.960;2024-03-07T07:20:31;27.80;;;13.30;;
3149;SDS011;32503;47.748;8.960;2024-03-07T07:22:59;26.33;;;12.40;;
3149;SDS011;32503;47.748;8.960;2024-03-07T07:25:28;21.57;;;10.80;;
3149;SDS011;32503;47.748;8.960;2024-03-07T07:27:56;25.40;;;12.87;;
3149;SDS011;32503;47.748;8.960;2024-03-07T07:30:24;25.87;;;13.17;;
3149;SDS011;32503;47.748;8.960;2024-03-07T07:32:52;22.60;;;12.97;;
3149;SDS011;32503;47.748;8.960;2024-03-07T07:35:19;55.30;;;21.03;;
3149;SDS011;32503;47.748;8.960;2024-03-07T07:37:47;32.63;;;14.00;;
3149;SDS011;32503;47.748;8.960;2024-03-07T07:40:16;24.93;;;13.10;;
3149;SDS011;32503;47.748;8.960;2024-03-07T07:42:47;25.10;;;12.37;;
3149;SDS011;32503;47.748;8.960;2024-03-07T07:45:19;26.60;;;13.27;;
3149;SDS011;32503;47.748;8.960;2024-03-07T07:47:48;30.40;;;14.03;;
3149;SDS011;32503;47.748;8.960;2024-03-07T07:50:17;22.07;;;11.70;;
3149;SDS011;32503;47.748;8.960;2024-03-07T07:52:46;26.20;;;13.00;;
3149;SDS011;32503;47.748;8.960;2024-03-07T07:55:15;19.30;;;11.30;;
3149;SDS011;32503;47.748;8.960;2024-03-07T07:57:43;23.20;;;12.80;;
3149;SDS011;32503;47.748;8.960;2024-03-07T08:00:11;19.07;;;9.73;;
3149;SDS011;32503;47.748;8.960;2024-03-07T08:02:52;29.97;;;12.30;;
3149;SDS011;32503;47.748;8.960;2024-03-07T08:05:20;26.83;;;14.20;;
3149;SDS011;32503;47.748;8.960;2024-03-07T08:07:48;21.13;;;10.40;;
3149;SDS011;32503;47.748;8.960;2024-03-07T08:10:16;21.27;;;11.00;;
3149;SDS011;32503;47.748;8.960;2024-03-07T08:12:44;24.53;;;12.33;;
3149;SDS011;32503;47.748;8.960;2024-03-07T08:15:11;32.33;;;13.20;;
3149;SDS011;32503;47.748;8.960;2024-03-07T08:17:40;26.63;;;14.30;;
3149;SDS011;32503;47.748;8.960;2024-03-07T08:20:11;23.80;;;12.60;;
3149;SDS011;32503;47.748;8.960;2024-03-07T08:22:40;26.33;;;12.47;;
3149;SDS011;32503;47.748;8.960;2024-03-07T08:25:09;27.37;;;11.60;;
3149;SDS011;32503;47.748;8.960;2024-03-07T08:27:37;29.10;;;13.20;;
3149;SDS011;32503;47.748;8.960;2024-03-07T08:30:05;26.77;;;13.60;;
3149;SDS011;32503;47.748;8.960;2024-03-07T08:32:38;19.53;;;11.00;;
3149;SDS011;32503;47.748;8.960;2024-03-07T08:35:06;23.10;;;12.50;;
3149;SDS011;32503;47.748;8.960;2024-03-07T08:37:36;29.97;;;12.47;;
3149;SDS011;32503;47.748;8.960;2024-03-07T08:40:05;23.37;;;11.83;;
3149;SDS011;32503;47.748;8.960;2024-03-07T08:42:35;23.37;;;11.57;;
3149;SDS011;32503;47.748;8.960;2024-03-07T08:45:03;20.57;;;12.83;;
3149;SDS011;32503;47.748;8.960;2024-03-07T08:47:31;25.80;;;12.20;;
3149;SDS011;32503;47.748;8.960;2024-03-07T08:49:58;19.63;;;11.10;;
3149;SDS011;32503;47.748;8.960;2024-03-07T08:52:26;23.10;;;13.27;;
3149;SDS011;32503;47.748;8.960;2024-03-07T08:54:55;27.13;;;13.00;;
3149;SDS011;32503;47.748;8.960;2024-03-07T08:57:22;18.90;;;11.67;;
3149;SDS011;32503;47.748;8.960;2024-03-07T08:59:49;18.30;;;10.77;;
3149;SDS011;32503;47.748;8.960;2024-03-07T09:02:16;23.50;;;11.87;;
3149;SDS011;32503;47.748;8.960;2024-03-07T09:04:43;22.83;;;12.27;;
3149;SDS011;32503;47.748;8.960;2024-03-07T09:07:11;22.37;;;12.30;;
3149;SDS011;32503;47.748;8.960;2024-03-07T09:09:39;24.00;;;12.93;;
3149;SDS011;32503;47.748;8.960;2024-03-07T09:12:09;22.37;;;12.60;;
3149;SDS011;32503;47.748;8.960;2024-03-07T09:14:37;20.53;;;11.60;;
3149;SDS011;32503;47.748;8.960;2024-03-07T09:17:05;27.73;;;11.80;;
3149;SDS011;32503;47.748;8.960;2024-03-07T09:19:32;23.40;;;13.33;;
3149;SDS011;32503;47.748;8.960;2024-03-07T09:21:59;25.77;;;12.43;;
3149;SDS011;32503;47.748;8.960;2024-03-07T09:24:28;23.13;;;13.07;;
3149;SDS011;32503;47.748;8.960;2024-03-07T09:26:57;26.77;;;13.83;;
3149;SDS011;32503;47.748;8.960;2024-03-07T09:29:25;24.93;;;12.83;;
3149;SDS011;32503;47.748;8.960;2024-03-07T09:31:53;28.20;;;14.50;;
3149;SDS011;32503;47.748;8.960;2024-03-07T09:34:22;31.93;;;14.30;;
3149;SDS011;32503;47.748;8.960;2024-03-07T09:36:50;22.20;;;13.07;;
3149;SDS011;32503;47.748;8.960;2024-03-07T09:39:17;25.57;;;12.20;;
3149;SDS011;32503;47.748;8.960;2024-03-07T09:41:44;22.37;;;11.67;;
3149;SDS011;32503;47.748;8.960;2024-03-07T09:44:12;20.87;;;12.30;;
3149;SDS011;32503;47.748;8.960;2024-03-07T09:46:48;28.13;;;13.67;;
3149;SDS011;32503;47.748;8.960;2024-03-07T09:49:21;26.20;;;13.70;;
3149;SDS011;32503;47.748;8.960;2024-03-07T09:51:49;26.17;;;13.47;;
3149;SDS011;32503;47.748;8.960;2024-03-07T09:54:19;24.20;;;12.20;;
3149;SDS011;32503;47.748;8.960;2024-03-07T09:56:48;28.37;;;13.57;;
3149;SDS011;32503;47.748;8.960;2024-03-07T09:59:16;22.87;;;12.80;;
3149;SDS011;32503;47.748;8.960;2024-03-07T10:01:48;27.77;;;13.00;;
3149;SDS011;32503;47.748;8.960;2024-03-07T10:04:21;24.83;;;13.87;;
3149;SDS011;32503;47.748;8.960;2024-03-07T10:06:55;24.50;;;12.70;;
3149;SDS011;32503;47.748;8.960;2024-03-07T10:09:22;21.93;;;12.70;;
3149;SDS011;32503;47.748;8.960;2024-03-07T10:11:55;23.27;;;11.60;;
3149;SDS011;32503;47.748;8.960;2024-03-07T10:14:23;21.67;;;12.70;;
3149;SDS011;32503;47.748;8.960;2024-03-07T10:16:51;31.10;;;15.23;;
3149;SDS011;32503;47.748;8.960;2024-03-07T10:19:21;23.33;;;14.20;;
3149;SDS011;32503;47.748;8.960;2024-03-07T10:21:49;29.50;;;14.00;;
3149;SDS011;32503;47.748;8.960;2024-03-07T10:24:17;23.33;;;12.50;;
3149;SDS011;32503;47.748;8.960;2024-03-07T10:26:50;19.60;;;12.83;;
3149;SDS011;32503;47.748;8.960;2024-03-07T10:29:17;21.70;;;12.47;;
3149;SDS011;32503;47.748;8.960;2024-03-07T10:31:44;25.70;;;14.20;;
3149;SDS011;32503;47.748;8.960;2024-03-07T10:34:14;29.77;;;14.70;;
3149;SDS011;32503;47.748;8.960;2024-03-07T10:36:42;35.73;;;19.50;;
3149;SDS011;32503;47.748;8.960;2024-03-07T10:39:10;25.93;;;14.10;;
3149;SDS011;32503;47.748;8.960;2024-03-07T10:41:40;23.97;;;14.23;;
3149;SDS011;32503;47.748;8.960;2024-03-07T10:44:15;24.87;;;13.70;;
3149;SDS011;32503;47.748;8.960;2024-03-07T10:46:51;27.90;;;14.10;;
3149;SDS011;32503;47.748;8.960;2024-03-07T10:49:21;24.77;;;13.13;;
3149;SDS011;32503;47.748;8.960;2024-03-07T10:51:57;22.37;;;12.90;;
3149;SDS011;32503;47.748;8.960;2024-03-07T10:54:33;23.37;;;13.63;;
3149;SDS011;32503;47.748;8.960;2024-03-07T10:57:13;23.50;;;14.20;;
3149;SDS011;32503;47.748;8.960;2024-03-07T10:59:49;30.83;;;13.87;;
3149;SDS011;32503;47.748;8.960;2024-03-07T11:02:20;19.93;;;11.63;;
3149;SDS011;32503;47.748;8.960;2024-03-07T11:04:59;21.27;;;12.20;;
3149;SDS011;32503;47.748;8.960;2024-03-07T11:07:27;30.43;;;16.13;;
3149;SDS011;32503;47.748;8.960;2024-03-07T11:09:55;31.93;;;14.60;;
3149;SDS011;32503;47.748;8.960;2024-03-07T11:12:24;20.50;;;11.80;;
3149;SDS011;32503;47.748;8.960;2024-03-07T11:14:53;23.80;;;12.77;;
3149;SDS011;32503;47.748;8.960;2024-03-07T11:17:22;20.33;;;12.80;;
3149;SDS011;32503;47.748;8.960;2024-03-07T11:19:50;20.30;;;11.00;;
3149;SDS011;32503;47.748;8.960;2024-03-07T11:22:30;24.67;;;12.80;;
3149;SDS011;32503;47.748;8.960;2024-03-07T11:25:02;22.57;;;11.37;;
3149;SDS011;32503;47.748;8.960;2024-03-07T11:27:33;23.17;;;12.40;;
3149;SDS011;32503;47.748;8.960;2024-03-07T11:30:04;20.03;;;11.63;;
3149;SDS011;32503;47.748;8.960;2024-03-07T11:32:34;20.80;;;10.73;;
3149;SDS011;32503;47.748;8.960;2024-03-07T11:35:03;21.40;;;10.50;;
3149;SDS011;32503;47.748;8.960;2024-03-07T11:37:41;19.47;;;12.33;;
3149;SDS011;32503;47.748;8.960;2024-03-07T11:40:11;23.37;;;11.87;;
3149;SDS011;32503;47.748;8.960;2024-03-07T11:42:45;20.93;;;13.30;;
3149;SDS011;32503;47.748;8.960;2024-03-07T11:45:14;18.10;;;11.00;;
3149;SDS011;32503;47.748;8.960;2024-03-07T11:47:50;20.87;;;12.90;;
3149;SDS011;32503;47.748;8.960;2024-03-07T11:50:23;18.23;;;11.83;;
3149;SDS011;32503;47.748;8.960;2024-03-07T11:52:52;21.97;;;12.60;;
3149;SDS011;32503;47.748;8.960;2024-03-07T11:55:19;26.70;;;14.07;;
3149;SDS011;32503;47.748;8.960;2024-03-07T11:57:47;30.10;;;14.57;;
3149;SDS011;32503;47.748;8.960;2024-03-07T12:00:16;21.97;;;13.63;;
3149;SDS011;32503;47.748;8.960;2024-03-07T12:02:44;29.33;;;14.20;;
3149;SDS011;32503;47.748;8.960;2024-03-07T12:05:13;27.83;;;14.23;;
3149;SDS011;32503;47.748;8.960;2024-03-07T12:07:41;24.40;;;13.47;;
3149;SDS011;32503;47.748;8.960;2024-03-07T12:10:11;26.20;;;14.20;;
3149;SDS011;32503;47.748;8.960;2024-03-07T12:12:38;24.27;;;14.70;;
3149;SDS011;32503;47.748;8.960;2024-03-07T12:15:06;26.57;;;14.73;;
3149;SDS011;32503;47.748;8.960;2024-03-07T12:17:43;25.87;;;13.90;;
3149;SDS011;32503;47.748;8.960;2024-03-07T12:20:11;29.43;;;16.07;;
3149;SDS011;32503;47.748;8.960;2024-03-07T12:22:54;23.90;;;13.33;;
3149;SDS011;32503;47.748;8.960;2024-03-07T12:25:24;27.57;;;14.20;;
3149;SDS011;32503;47.748;8.960;2024-03-07T12:27:58;27.40;;;13.63;;
3149;SDS011;32503;47.748;8.960;2024-03-07T12:30:30;34.80;;;15.30;;
3149;SDS011;32503;47.748;8.960;2024-03-07T12:33:00;31.93;;;14.70;;
3149;SDS011;32503;47.748;8.960;2024-03-07T12:35:32;22.77;;;13.10;;
3149;SDS011;32503;47.748;8.960;2024-03-07T12:37:59;31.53;;;15.23;;
3149;SDS011;32503;47.748;8.960;2024-03-07T12:40:30;22.77;;;13.60;;
3149;SDS011;32503;47.748;8.960;2024-03-07T12:42:59;30.40;;;14.23;;
3149;SDS011;32503;47.748;8.960;2024-03-07T12:45:27;26.10;;;13.83;;
3149;SDS011;32503;47.748;8.960;2024-03-07T12:47:58;31.47;;;15.50;;
3149;SDS011;32503;47.748;8.960;2024-03-07T12:50:29;27.83;;;14.70;;
3149;SDS011;32503;47.748;8.960;2024-03-07T12:53:00;31.50;;;16.03;;
3149;SDS011;32503;47.748;8.960;2024-03-07T12:55:32;23.33;;;14.37;;
3149;SDS011;32503;47.748;8.960;2024-03-07T12:58:00;20.50;;;13.27;;
3149;SDS011;32503;47.748;8.960;2024-03-07T13:00:27;29.63;;;14.10;;
3149;SDS011;32503;47.748;8.960;2024-03-07T13:02:55;23.60;;;13.70;;
3149;SDS011;32503;47.748;8.960;2024-03-07T13:05:22;23.90;;;13.27;;
3149;SDS011;32503;47.748;8.960;2024-03-07T13:07:51;36.20;;;14.90;;
3149;SDS011;32503;47.748;8.960;2024-03-07T13:10:18;31.33;;;15.57;;
3149;SDS011;32503;47.748;8.960;2024-03-07T13:12:47;29.33;;;16.17;;
3149;SDS011;32503;47.748;8.960;2024-03-07T13:15:14;35.93;;;15.10;;
3149;SDS011;32503;47.748;8.960;2024-03-07T13:17:42;28.33;;;15.27;;
3149;SDS011;32503;47.748;8.960;2024-03-07T13:20:10;33.40;;;15.67;;
3149;SDS011;32503;47.748;8.960;2024-03-07T13:22:39;24.53;;;13.23;;
3149;SDS011;32503;47.748;8.960;2024-03-07T13:25:09;22.97;;;12.97;;
3149;SDS011;32503;47.748;8.960;2024-03-07T13:27:42;31.53;;;15.10;;
3149;SDS011;32503;47.748;8.960;2024-03-07T13:30:26;32.17;;;14.13;;
3149;SDS011;32503;47.748;8.960;2024-03-07T13:32:54;27.03;;;14.50;;
3149;SDS011;32503;47.748;8.960;2024-03-07T13:35:22;34.90;;;15.20;;
3149;SDS011;32503;47.748;8.960;2024-03-07T13:37:50;29.97;;;14.47;;
3149;SDS011;32503;47.748;8.960;2024-03-07T13:40:19;30.60;;;15.00;;
3149;SDS011;32503;47.748;8.960;2024-03-07T13:42:50;28.90;;;14.67;;
3149;SDS011;32503;47.748;8.960;2024-03-07T13:45:21;26.93;;;12.80;;
3149;SDS011;32503;47.748;8.960;2024-03-07T13:47:53;26.00;;;14.60;;
3149;SDS011;32503;47.748;8.960;2024-03-07T13:50:22;29.47;;;14.83;;
3149;SDS011;32503;47.748;8.960;2024-03-07T13:52:53;30.13;;;16.33;;
3149;SDS011;32503;47.748;8.960;2024-03-07T13:58:48;31.23;;;15.73;;
3149;SDS011;32503;47.748;8.960;2024-03-07T14:01:51;31.50;;;15.90;;
3149;SDS011;32503;47.748;8.960;2024-03-07T14:04:43;30.57;;;15.80;;
3149;SDS011;32503;47.748;8.960;2024-03-07T14:07:41;32.80;;;15.63;;
3149;SDS011;32503;47.748;8.960;2024-03-07T14:10:40;29.60;;;16.20;;
3149;SDS011;32503;47.748;8.960;2024-03-07T14:19:54;33.87;;;15.97;;
3149;SDS011;32503;47.748;8.960;2024-03-07T14:23:19;33.90;;;16.33;;
3149;SDS011;32503;47.748;8.960;2024-03-07T14:26:10;33.47;;;18.87;;
3149;SDS011;32503;47.748;8.960;2024-03-07T14:29:12;29.80;;;17.30;;
3149;SDS011;32503;47.748;8.960;2024-03-07T14:31:52;34.03;;;16.47;;
3149;SDS011;32503;47.748;8.960;2024-03-07T14:34:23;34.37;;;15.67;;
3149;SDS011;32503;47.748;8.960;2024-03-07T14:37:09;29.27;;;16.17;;
3149;SDS011;32503;47.748;8.960;2024-03-07T14:39:48;39.33;;;18.20;;
3149;SDS011;32503;47.748;8.960;2024-03-07T14:42:18;36.40;;;18.87;;
3149;SDS011;32503;47.748;8.960;2024-03-07T14:44:46;38.90;;;17.63;;
3149;SDS011;32503;47.748;8.960;2024-03-07T14:47:13;31.03;;;15.80;;
3149;SDS011;32503;47.748;8.960;2024-03-07T14:49:45;39.57;;;18.23;;
3149;SDS011;32503;47.748;8.960;2024-03-07T14:52:13;34.47;;;18.83;;
3149;SDS011;32503;47.748;8.960;2024-03-07T14:54:42;37.83;;;19.70;;
3149;SDS011;32503;47.748;8.960;2024-03-07T14:57:10;36.70;;;17.60;;
3149;SDS011;32503;47.748;8.960;2024-03-07T14:59:38;33.57;;;16.27;;
3149;SDS011;32503;47.748;8.960;2024-03-07T15:02:06;34.03;;;18.27;;
3149;SDS011;32503;47.748;8.960;2024-03-07T15:04:36;50.43;;;26.50;;